createdAt,value
2019-03-17T00:00:10.773Z,0.87
2019-03-17T00:02:37.990Z,0.80
2019-03-17T00:05:05.501Z,1.00
2019-03-17T00:07:32.703Z,0.73
2019-03-17T00:09:59.914Z,0.80
2019-03-17T00:12:27.141Z,0.63
2019-03-17T00:15:04.729Z,0.90
2019-03-17T00:17:25.127Z,0.93
2019-03-17T00:19:52.242Z,0.97
2019-03-17T00:22:19.476Z,0.87
2019-03-17T00:24:46.688Z,0.90
2019-03-17T00:27:13.915Z,0.60
2019-03-17T00:29:41.138Z,0.87
2019-03-17T00:32:08.679Z,0.93
2019-03-17T00:34:44.013Z,0.80
2019-03-17T00:37:04.860Z,0.60
2019-03-17T00:39:32.083Z,1.40
2019-03-17T00:41:59.314Z,0.80
2019-03-17T00:44:26.527Z,1.23
2019-03-17T00:46:53.743Z,0.70
2019-03-17T00:49:20.958Z,1.50
2019-03-17T00:51:48.179Z,1.00
2019-03-17T00:54:15.420Z,0.80
2019-03-17T00:56:42.654Z,1.10
2019-03-17T00:59:09.910Z,0.70
2019-03-17T01:01:37.168Z,1.00
2019-03-17T01:04:04.443Z,0.70
2019-03-17T01:06:31.672Z,0.93
2019-03-17T01:08:58.892Z,0.67
2019-03-17T01:11:26.116Z,0.53
2019-03-17T01:13:53.323Z,0.73
2019-03-17T01:16:20.547Z,0.90
2019-03-17T01:18:47.769Z,4.27
2019-03-17T01:21:14.988Z,0.70
2019-03-17T01:23:42.208Z,0.80
2019-03-17T01:26:09.420Z,0.73
2019-03-17T01:28:36.639Z,0.70
2019-03-17T01:31:03.887Z,0.80
2019-03-17T01:33:31.167Z,0.67
2019-03-17T01:35:58.386Z,1.00
2019-03-17T01:38:25.607Z,0.80
2019-03-17T01:40:52.815Z,0.70
2019-03-17T01:43:20.047Z,0.67
2019-03-17T01:45:47.265Z,0.80
2019-03-17T01:48:14.484Z,0.80
2019-03-17T01:50:42.037Z,0.77
2019-03-17T01:53:09.248Z,0.70
2019-03-17T01:55:36.455Z,0.70
2019-03-17T01:58:03.683Z,0.80
2019-03-17T02:00:30.919Z,1.00
2019-03-17T02:02:58.139Z,0.70
2019-03-17T02:05:25.362Z,0.50
2019-03-17T02:07:52.599Z,0.73
2019-03-17T02:10:19.808Z,0.97
2019-03-17T02:12:47.035Z,0.63
2019-03-17T02:15:14.260Z,0.63
2019-03-17T02:17:41.476Z,0.83
2019-03-17T02:20:09.267Z,0.73
2019-03-17T02:22:36.493Z,0.60
2019-03-17T02:25:04.783Z,0.67
2019-03-17T02:27:32.067Z,0.50
2019-03-17T02:29:59.291Z,0.97
2019-03-17T02:32:26.521Z,0.53
2019-03-17T02:34:53.733Z,1.00
2019-03-17T02:37:20.956Z,1.00
2019-03-17T02:39:48.201Z,0.83
2019-03-17T02:42:15.432Z,0.60
2019-03-17T02:44:42.656Z,1.17
2019-03-17T02:47:09.876Z,0.70
2019-03-17T02:49:37.123Z,0.63
2019-03-17T02:52:04.404Z,0.60
2019-03-17T02:54:31.623Z,0.97
2019-03-17T02:56:58.836Z,0.50
2019-03-17T02:59:26.070Z,0.80
2019-03-17T03:01:53.288Z,1.03
2019-03-17T03:04:20.783Z,0.80
2019-03-17T03:06:47.997Z,0.73
2019-03-17T03:09:15.226Z,0.70
2019-03-17T03:11:42.443Z,0.63
2019-03-17T03:14:09.664Z,0.83
2019-03-17T03:16:36.876Z,0.63
2019-03-17T03:19:04.101Z,0.60
2019-03-17T03:21:31.337Z,0.70
2019-03-17T03:23:58.555Z,0.77
2019-03-17T03:26:25.771Z,0.83
2019-03-17T03:28:52.991Z,0.73
2019-03-17T03:31:20.214Z,0.87
2019-03-17T03:33:47.440Z,0.70
2019-03-17T03:36:14.668Z,0.60
2019-03-17T03:38:41.897Z,0.60
2019-03-17T03:41:09.106Z,0.80
2019-03-17T03:43:36.351Z,0.70
2019-03-17T03:46:03.699Z,0.70
2019-03-17T03:48:30.907Z,0.70
2019-03-17T03:50:58.133Z,0.70
2019-03-17T03:53:25.350Z,0.67
2019-03-17T03:55:52.577Z,1.00
2019-03-17T03:58:19.804Z,0.70
2019-03-17T04:00:47.031Z,0.70
2019-03-17T04:03:14.316Z,0.80
2019-03-17T04:05:41.548Z,0.67
2019-03-17T04:08:08.763Z,0.60
2019-03-17T04:10:35.991Z,0.50
2019-03-17T04:13:03.200Z,0.50
2019-03-17T04:15:30.420Z,0.60
2019-03-17T04:17:57.634Z,0.80
2019-03-17T04:20:24.849Z,0.60
2019-03-17T04:22:52.075Z,0.80
2019-03-17T04:25:19.296Z,0.73
2019-03-17T04:27:46.530Z,0.60
2019-03-17T04:30:13.757Z,1.00
2019-03-17T04:32:40.968Z,0.70
2019-03-17T04:35:10.872Z,0.87
2019-03-17T04:37:38.086Z,0.97
2019-03-17T04:40:06.701Z,0.53
2019-03-17T04:42:33.899Z,0.60
2019-03-17T04:45:01.123Z,0.67
2019-03-17T04:47:28.339Z,0.60
2019-03-17T04:49:55.563Z,0.73
2019-03-17T04:52:23.741Z,0.90
2019-03-17T04:54:51.328Z,0.93
2019-03-17T04:57:18.551Z,0.80
2019-03-17T04:59:45.771Z,0.93
2019-03-17T05:02:13.770Z,0.70
2019-03-17T05:04:41.192Z,0.97
2019-03-17T05:07:08.417Z,1.00
2019-03-17T05:09:35.631Z,0.47
2019-03-17T05:12:03.127Z,0.97
2019-03-17T05:14:30.347Z,0.80
2019-03-17T05:16:57.568Z,0.60
2019-03-17T05:19:24.781Z,0.70
2019-03-17T05:21:52.008Z,0.70
2019-03-17T05:24:19.231Z,0.77
2019-03-17T05:26:46.443Z,0.57
2019-03-17T05:29:13.664Z,0.73
2019-03-17T05:31:40.895Z,0.97
2019-03-17T05:34:08.111Z,0.60
2019-03-17T05:36:35.332Z,0.70
2019-03-17T05:39:02.547Z,0.60
2019-03-17T05:41:29.784Z,0.73
2019-03-17T05:43:57.008Z,0.60
2019-03-17T05:46:24.226Z,0.53
2019-03-17T05:48:51.453Z,0.50
2019-03-17T05:51:18.675Z,0.50
2019-03-17T05:53:45.891Z,0.80
2019-03-17T05:56:13.130Z,0.70
2019-03-17T05:58:40.356Z,0.60
2019-03-17T06:01:07.578Z,0.93
2019-03-17T06:03:34.795Z,0.70
2019-03-17T06:06:02.024Z,0.80
2019-03-17T06:08:29.244Z,0.67
2019-03-17T06:10:56.455Z,0.77
2019-03-17T06:13:23.680Z,0.63
2019-03-17T06:15:50.914Z,0.70
2019-03-17T06:18:18.131Z,0.80
2019-03-17T06:20:45.346Z,0.77
2019-03-17T06:23:12.579Z,0.83
2019-03-17T06:25:39.807Z,0.60
2019-03-17T06:28:07.034Z,0.83
2019-03-17T06:30:34.260Z,1.20
2019-03-17T06:33:01.483Z,0.50
2019-03-17T06:35:28.700Z,0.53
2019-03-17T06:37:55.923Z,1.03
2019-03-17T06:40:23.138Z,0.63
2019-03-17T06:42:50.371Z,0.60
2019-03-17T06:45:17.878Z,0.90
2019-03-17T06:47:45.105Z,0.50
2019-03-17T06:50:13.863Z,0.60
2019-03-17T06:52:41.090Z,0.60
2019-03-17T06:55:09.683Z,0.63
2019-03-17T06:57:37.236Z,1.33
2019-03-17T07:00:05.989Z,0.63
2019-03-17T07:02:33.217Z,0.90
2019-03-17T07:05:00.432Z,1.13
2019-03-17T07:07:27.656Z,0.53
2019-03-17T07:09:54.866Z,0.80
2019-03-17T07:12:22.088Z,0.90
2019-03-17T07:14:49.306Z,0.97
2019-03-17T07:17:19.205Z,0.90
2019-03-17T07:19:45.489Z,1.10
2019-03-17T07:22:12.699Z,1.03
2019-03-17T07:24:39.924Z,0.77
2019-03-17T07:27:07.145Z,0.60
2019-03-17T07:29:34.367Z,0.83
2019-03-17T07:32:01.582Z,0.77
2019-03-17T07:34:28.794Z,0.60
2019-03-17T07:36:56.021Z,0.63
2019-03-17T07:39:23.264Z,0.80
2019-03-17T07:41:50.483Z,1.07
2019-03-17T07:44:17.703Z,0.90
2019-03-17T07:46:44.952Z,0.90
2019-03-17T07:49:12.171Z,0.70
2019-03-17T07:51:39.391Z,1.10
2019-03-17T07:54:06.717Z,0.63
2019-03-17T07:56:33.935Z,0.80
2019-03-17T07:59:01.153Z,1.13
2019-03-17T08:01:28.435Z,0.93
2019-03-17T08:03:55.743Z,1.20
2019-03-17T08:06:22.998Z,0.90
2019-03-17T08:08:50.247Z,0.63
2019-03-17T08:11:17.443Z,0.97
2019-03-17T08:13:44.672Z,1.07
2019-03-17T08:16:11.893Z,0.80
2019-03-17T08:18:39.116Z,1.03
2019-03-17T08:21:06.341Z,0.80
2019-03-17T08:23:33.644Z,1.07
2019-03-17T08:26:00.869Z,1.00
2019-03-17T08:28:28.095Z,0.90
2019-03-17T08:30:55.409Z,0.70
2019-03-17T08:33:22.633Z,0.83
2019-03-17T08:35:49.863Z,0.57
2019-03-17T08:38:21.685Z,0.80
2019-03-17T08:40:46.043Z,0.70
2019-03-17T08:43:13.281Z,1.07
2019-03-17T08:45:40.498Z,0.63
2019-03-17T08:48:11.891Z,0.97
2019-03-17T08:50:39.199Z,0.80
2019-03-17T08:53:06.437Z,0.93
2019-03-17T08:55:33.731Z,0.67
2019-03-17T08:58:00.951Z,1.00
2019-03-17T09:00:28.170Z,0.70
2019-03-17T09:02:55.403Z,0.80
2019-03-17T09:05:27.444Z,1.23
2019-03-17T09:07:54.677Z,0.97
2019-03-17T09:10:22.019Z,1.03
2019-03-17T09:12:49.276Z,1.00
2019-03-17T09:15:16.492Z,0.70
2019-03-17T09:17:43.706Z,1.63
2019-03-17T09:20:11.595Z,0.77
2019-03-17T09:22:38.813Z,0.87
2019-03-17T09:25:07.398Z,0.80
2019-03-17T09:27:34.653Z,1.10
2019-03-17T09:30:01.891Z,1.03
2019-03-17T09:32:29.099Z,1.37
2019-03-17T09:34:56.328Z,1.10
2019-03-17T09:37:23.543Z,1.33
2019-03-17T09:39:50.782Z,1.23
2019-03-17T09:42:18.009Z,1.57
2019-03-17T09:44:45.297Z,1.50
2019-03-17T09:47:12.522Z,2.07
2019-03-17T09:49:39.815Z,1.40
2019-03-17T09:52:07.026Z,0.77
2019-03-17T09:54:34.263Z,1.63
2019-03-17T09:57:01.479Z,1.30
2019-03-17T09:59:28.706Z,1.40
2019-03-17T10:01:55.930Z,1.40
2019-03-17T10:04:23.146Z,2.10
2019-03-17T10:06:50.382Z,1.77
2019-03-17T10:09:17.611Z,1.27
2019-03-17T10:11:44.994Z,1.80
2019-03-17T10:14:12.494Z,1.10
2019-03-17T10:16:39.687Z,1.27
2019-03-17T10:19:06.918Z,1.60
2019-03-17T10:21:34.122Z,1.27
2019-03-17T10:24:01.407Z,1.93
2019-03-17T10:26:28.650Z,1.60
2019-03-17T10:28:55.873Z,1.67
2019-03-17T10:31:23.106Z,2.20
2019-03-17T10:33:50.325Z,1.57
2019-03-17T10:36:17.559Z,1.77
2019-03-17T10:38:44.781Z,1.50
2019-03-17T10:41:11.999Z,2.20
2019-03-17T10:43:39.230Z,1.70
2019-03-17T10:46:06.456Z,1.60
2019-03-17T10:48:33.685Z,1.50
2019-03-17T10:51:00.927Z,1.20
2019-03-17T10:53:28.191Z,1.10
2019-03-17T10:55:55.482Z,1.70
2019-03-17T10:58:22.702Z,1.33
2019-03-17T11:00:49.967Z,1.00
2019-03-17T11:03:17.220Z,1.40
2019-03-17T11:05:44.422Z,1.60
2019-03-17T11:08:11.640Z,1.40
2019-03-17T11:10:38.875Z,1.43
2019-03-17T11:13:06.116Z,1.27
2019-03-17T11:15:33.352Z,1.50
2019-03-17T11:18:00.569Z,1.50
2019-03-17T11:20:27.798Z,2.00
2019-03-17T11:22:55.023Z,2.07
2019-03-17T11:25:22.223Z,2.27
2019-03-17T11:27:49.433Z,1.20
2019-03-17T11:30:17.135Z,1.40
2019-03-17T11:32:44.403Z,2.73
2019-03-17T11:35:11.643Z,1.67
2019-03-17T11:37:38.877Z,1.57
2019-03-17T11:40:13.595Z,2.00
2019-03-17T11:42:43.508Z,1.57
2019-03-17T11:45:13.740Z,1.40
2019-03-17T11:47:41.045Z,1.83
2019-03-17T11:50:09.803Z,2.23
2019-03-17T11:52:37.028Z,2.13
2019-03-17T11:55:05.211Z,1.60
2019-03-17T11:57:32.444Z,1.77
2019-03-17T11:59:59.668Z,1.87
2019-03-17T12:02:27.145Z,2.33
2019-03-17T12:04:54.715Z,1.80
2019-03-17T12:07:21.950Z,1.93
2019-03-17T12:09:50.474Z,1.67
2019-03-17T12:12:17.867Z,1.90
2019-03-17T12:14:45.081Z,1.50
2019-03-17T12:17:12.299Z,1.60
2019-03-17T12:19:39.522Z,2.83
2019-03-17T12:22:09.444Z,1.30
2019-03-17T12:24:35.868Z,2.20
2019-03-17T12:27:03.114Z,1.67
2019-03-17T12:29:30.388Z,1.70
2019-03-17T12:31:57.637Z,1.90
2019-03-17T12:34:28.426Z,2.37
2019-03-17T12:36:53.837Z,1.40
2019-03-17T12:39:21.037Z,1.20
2019-03-17T12:41:48.260Z,1.60
2019-03-17T12:44:15.471Z,1.60
2019-03-17T12:46:42.703Z,1.40
2019-03-17T12:49:09.932Z,1.30
2019-03-17T12:51:37.214Z,1.30
2019-03-17T12:54:04.496Z,1.90
2019-03-17T12:56:31.716Z,1.47
2019-03-17T12:58:58.945Z,1.47
2019-03-17T13:01:26.188Z,1.40
2019-03-17T13:03:53.460Z,1.80
2019-03-17T13:06:20.724Z,1.23
2019-03-17T13:08:47.951Z,1.13
2019-03-17T13:11:15.171Z,1.70
2019-03-17T13:13:42.395Z,2.30
2019-03-17T13:16:09.626Z,1.80
2019-03-17T13:18:36.843Z,1.53
2019-03-17T13:21:04.145Z,1.20
2019-03-17T13:23:31.385Z,1.87
2019-03-17T13:25:58.600Z,1.00
2019-03-17T13:28:25.831Z,1.13
2019-03-17T13:30:53.066Z,0.50
2019-03-17T13:33:20.328Z,0.50
2019-03-17T13:35:47.583Z,0.53
2019-03-17T13:38:14.840Z,0.53
2019-03-17T13:40:42.063Z,0.40
2019-03-17T13:43:09.301Z,0.40
2019-03-17T13:45:36.599Z,0.70
2019-03-17T13:48:03.841Z,0.53
2019-03-17T13:50:31.052Z,0.60
2019-03-17T13:52:58.333Z,0.67
2019-03-17T13:55:25.551Z,0.40
2019-03-17T13:57:57.206Z,0.67
2019-03-17T14:00:24.424Z,0.40
2019-03-17T14:02:51.651Z,0.40
2019-03-17T14:05:18.883Z,0.50
2019-03-17T14:07:46.119Z,0.40
2019-03-17T14:10:14.761Z,0.50
2019-03-17T14:12:42.231Z,0.55
2019-03-17T14:15:10.726Z,0.60
2019-03-17T14:17:38.044Z,0.50
2019-03-17T14:20:06.799Z,0.55
2019-03-17T14:22:34.066Z,0.45
2019-03-17T14:25:01.305Z,0.50
2019-03-17T14:27:28.515Z,0.35
2019-03-17T14:29:55.731Z,0.40
2019-03-17T14:32:22.970Z,0.35
2019-03-17T14:34:50.216Z,0.40
2019-03-17T14:37:17.425Z,0.40
2019-03-17T14:39:44.638Z,0.40
2019-03-17T14:42:11.913Z,0.40
2019-03-17T14:44:39.131Z,0.40
2019-03-17T14:47:06.376Z,0.50
2019-03-17T14:49:33.594Z,0.50
2019-03-17T14:52:00.822Z,0.53
2019-03-17T14:54:30.960Z,0.50
2019-03-17T14:56:58.250Z,0.30
2019-03-17T14:59:25.482Z,0.50
2019-03-17T15:01:52.695Z,0.88
2019-03-17T15:04:19.921Z,1.15
2019-03-17T15:06:47.143Z,0.60
2019-03-17T15:09:14.375Z,0.40
2019-03-17T15:11:41.585Z,0.30
2019-03-17T15:14:08.839Z,0.40
2019-03-17T15:16:37.020Z,0.40
2019-03-17T15:19:04.563Z,0.40
2019-03-17T15:21:31.782Z,0.42
2019-03-17T15:23:59.008Z,1.62
2019-03-17T15:26:26.239Z,0.80
2019-03-17T15:28:53.464Z,0.45
2019-03-17T15:31:20.689Z,0.40
2019-03-17T15:33:47.955Z,0.50
2019-03-17T15:36:15.301Z,0.30
2019-03-17T15:38:42.523Z,0.50
2019-03-17T15:41:18.889Z,0.50
2019-03-17T15:43:43.390Z,1.77
2019-03-17T15:46:10.607Z,1.10
2019-03-17T15:48:37.857Z,0.50
2019-03-17T15:51:05.076Z,0.50
2019-03-17T15:53:32.332Z,0.70
2019-03-17T15:55:59.811Z,1.45
2019-03-17T15:58:27.194Z,2.77
2019-03-17T16:00:54.414Z,2.37
2019-03-17T16:03:21.661Z,1.70
2019-03-17T16:05:48.874Z,1.40
2019-03-17T16:08:16.102Z,1.00
2019-03-17T16:10:43.671Z,1.37
2019-03-17T16:13:10.911Z,0.55
2019-03-17T16:15:40.197Z,0.70
2019-03-17T16:18:07.171Z,0.60
2019-03-17T16:20:34.563Z,0.60
2019-03-17T16:23:02.623Z,0.80
2019-03-17T16:25:32.139Z,0.80
2019-03-17T16:28:00.242Z,0.68
2019-03-17T16:30:29.217Z,0.57
2019-03-17T16:33:00.164Z,0.70
2019-03-17T16:38:09.648Z,1.00
2019-03-17T16:40:36.880Z,0.80
2019-03-17T16:43:04.786Z,0.85
2019-03-17T16:45:32.063Z,0.70
2019-03-17T16:47:59.270Z,0.82
2019-03-17T16:50:26.501Z,0.42
2019-03-17T16:52:53.757Z,1.12
2019-03-17T16:55:20.985Z,1.00
2019-03-17T16:57:48.200Z,1.25
2019-03-17T17:00:18.923Z,0.75
2019-03-17T17:02:45.323Z,0.80
2019-03-17T17:05:13.123Z,0.72
2019-03-17T17:07:40.335Z,0.68
2019-03-17T17:10:09.108Z,1.00
2019-03-17T17:12:36.330Z,0.82
2019-03-17T17:15:04.722Z,0.90
2019-03-17T17:17:31.939Z,0.88
2019-03-17T17:19:59.154Z,0.93
2019-03-17T17:22:26.367Z,0.62
2019-03-17T17:24:53.597Z,0.70
2019-03-17T17:27:20.869Z,1.00
2019-03-17T17:29:48.110Z,0.65
2019-03-17T17:32:15.337Z,0.85
2019-03-17T17:34:42.585Z,0.82
2019-03-17T17:37:09.808Z,0.75
2019-03-17T17:39:37.024Z,0.75
2019-03-17T17:42:09.873Z,0.53
2019-03-17T17:44:33.231Z,0.72
2019-03-17T17:47:00.467Z,0.80
2019-03-17T17:49:27.679Z,0.60
2019-03-17T17:51:54.894Z,0.80
2019-03-17T17:54:22.106Z,0.70
2019-03-17T17:56:49.327Z,0.80
2019-03-17T17:59:16.547Z,0.70
2019-03-17T18:01:44.138Z,0.72
2019-03-17T18:04:11.355Z,0.80
2019-03-17T18:06:38.583Z,0.60
2019-03-17T18:09:06.678Z,0.50
2019-03-17T18:11:33.896Z,0.50
2019-03-17T18:14:01.110Z,0.50
2019-03-17T18:16:28.334Z,0.70
2019-03-17T18:18:55.558Z,0.40
2019-03-17T18:21:22.783Z,0.40
2019-03-17T18:23:50.002Z,0.70
2019-03-17T18:26:17.221Z,0.70
2019-03-17T18:28:44.430Z,0.50
2019-03-17T18:31:11.667Z,0.80
2019-03-17T18:33:38.883Z,1.00
2019-03-17T18:36:06.119Z,0.85
2019-03-17T18:38:33.408Z,0.70
2019-03-17T18:41:00.639Z,0.90
2019-03-17T18:43:27.853Z,0.80
2019-03-17T18:45:55.075Z,1.45
2019-03-17T18:48:22.291Z,0.60
2019-03-17T18:50:49.502Z,0.78
2019-03-17T18:53:16.730Z,0.70
2019-03-17T18:55:43.943Z,0.60
2019-03-17T18:58:11.171Z,0.50
2019-03-17T19:00:38.424Z,1.20
2019-03-17T19:03:05.631Z,0.47
2019-03-17T19:05:32.848Z,1.15
2019-03-17T19:08:00.071Z,1.12
2019-03-17T19:10:27.287Z,0.98
2019-03-17T19:12:54.499Z,0.55
2019-03-17T19:15:22.184Z,0.70
2019-03-17T19:17:49.585Z,0.53
2019-03-17T19:20:18.327Z,0.50
2019-03-17T19:22:45.552Z,0.50
2019-03-17T19:25:13.849Z,0.55
2019-03-17T19:27:41.066Z,0.88
2019-03-17T19:30:09.811Z,0.70
2019-03-17T19:32:37.031Z,0.80
2019-03-17T19:35:04.711Z,0.80
2019-03-17T19:37:31.926Z,0.90
2019-03-17T19:40:01.065Z,0.60
2019-03-17T19:42:28.123Z,0.85
2019-03-17T19:44:55.340Z,0.50
2019-03-17T19:47:22.570Z,0.62
2019-03-17T19:49:49.783Z,0.60
2019-03-17T19:52:16.994Z,0.50
2019-03-17T19:54:44.227Z,0.40
2019-03-17T19:57:11.482Z,0.50
2019-03-17T19:59:38.699Z,0.95
2019-03-17T20:02:05.931Z,1.40
2019-03-17T20:04:35.484Z,0.50
2019-03-17T20:07:02.103Z,0.60
2019-03-17T20:09:29.319Z,0.40
2019-03-17T20:11:56.531Z,0.60
2019-03-17T20:14:23.774Z,0.50
2019-03-17T20:16:50.988Z,0.50
2019-03-17T20:19:18.294Z,0.95
2019-03-17T20:21:45.519Z,0.70
2019-03-17T20:24:12.741Z,0.80
2019-03-17T20:26:39.950Z,0.90
2019-03-17T20:29:07.171Z,0.70
2019-03-17T20:31:34.456Z,0.93
2019-03-17T20:34:01.675Z,0.45
2019-03-17T20:36:28.917Z,1.00
2019-03-17T20:38:56.138Z,0.70
2019-03-17T20:41:23.356Z,0.72
2019-03-17T20:43:50.570Z,0.50
2019-03-17T20:46:17.815Z,0.70
2019-03-17T20:48:45.037Z,0.50
2019-03-17T20:51:12.248Z,0.60
2019-03-17T20:53:39.483Z,0.70
2019-03-17T20:56:06.771Z,0.50
2019-03-17T20:58:33.999Z,0.70
2019-03-17T21:01:02.211Z,0.60
2019-03-17T21:03:29.433Z,0.42
2019-03-17T21:05:56.638Z,0.40
2019-03-17T21:08:23.858Z,0.55
2019-03-17T21:10:51.067Z,0.50
2019-03-17T21:13:18.279Z,0.50
2019-03-17T21:15:45.723Z,0.75
2019-03-17T21:18:12.958Z,0.60
2019-03-17T21:20:40.165Z,1.15
2019-03-17T21:23:07.385Z,0.40
2019-03-17T21:25:34.600Z,0.70
2019-03-17T21:28:01.831Z,0.50
2019-03-17T21:30:30.224Z,0.72
2019-03-17T21:32:57.437Z,0.95
2019-03-17T21:35:24.655Z,0.70
2019-03-17T21:37:51.877Z,0.40
2019-03-17T21:40:19.274Z,0.70
2019-03-17T21:42:46.483Z,0.60
2019-03-17T21:45:14.166Z,0.60
2019-03-17T21:47:41.439Z,0.60
2019-03-17T21:50:12.755Z,0.55
2019-03-17T21:52:39.963Z,0.95
2019-03-17T21:55:08.046Z,0.82
2019-03-17T21:57:35.501Z,1.25
2019-03-17T22:00:02.824Z,0.80
2019-03-17T22:02:30.046Z,0.68
2019-03-17T22:04:57.263Z,0.93
2019-03-17T22:07:24.481Z,0.50
2019-03-17T22:09:51.707Z,0.60
2019-03-17T22:12:18.956Z,0.50
2019-03-17T22:14:46.182Z,0.40
2019-03-17T22:17:13.394Z,0.50
2019-03-17T22:19:40.615Z,0.53
2019-03-17T22:22:09.049Z,0.78
2019-03-17T22:24:36.531Z,0.85
2019-03-17T22:27:03.742Z,0.80
2019-03-17T22:29:30.963Z,0.75
2019-03-17T22:31:58.170Z,0.42
2019-03-17T22:34:25.469Z,0.90
2019-03-17T22:36:52.679Z,0.98
2019-03-17T22:39:19.913Z,0.60
2019-03-17T22:41:47.130Z,0.70
2019-03-17T22:44:23.829Z,0.57
2019-03-17T22:46:43.282Z,1.75
2019-03-17T22:49:10.506Z,0.60
2019-03-17T22:51:37.800Z,1.35
2019-03-17T22:54:05.105Z,0.55
2019-03-17T22:56:32.319Z,0.82
2019-03-17T22:58:59.539Z,0.65
2019-03-17T23:01:26.752Z,0.60
2019-03-17T23:03:53.959Z,0.70
2019-03-17T23:06:21.187Z,0.70
2019-03-17T23:08:48.401Z,0.60
2019-03-17T23:11:15.610Z,1.00
2019-03-17T23:13:42.848Z,0.70
2019-03-17T23:16:10.059Z,0.50
2019-03-17T23:18:37.270Z,1.20
2019-03-17T23:21:04.491Z,0.70
2019-03-17T23:23:31.699Z,0.90
2019-03-17T23:25:58.911Z,0.72
2019-03-17T23:28:26.135Z,0.90
2019-03-17T23:30:53.351Z,0.70
2019-03-17T23:33:20.563Z,0.50
2019-03-17T23:35:47.803Z,0.40
2019-03-17T23:38:14.998Z,1.02
2019-03-17T23:40:42.211Z,0.90
2019-03-17T23:43:09.419Z,0.93
2019-03-17T23:45:36.630Z,0.75
2019-03-17T23:48:03.861Z,1.27
2019-03-17T23:50:31.058Z,0.98
2019-03-17T23:52:58.276Z,1.27
2019-03-17T23:55:25.486Z,0.90
2019-03-17T23:57:52.702Z,1.10
